sensor_id;sensor_type;location;lat;lon;timestamp;temperature;humidity
71291;DHT22;59073;51.994;4.448;2023-08-01T00:02:10;17.51;84.94
71291;DHT22;59073;51.994;4.448;2023-08-01T00:04:36;17.58;84.84
71291;DHT22;59073;51.994;4.448;2023-08-01T00:07:01;17.56;85.11
71291;DHT22;59073;51.994;4.448;2023-08-01T00:09:27;17.56;84.62
71291;DHT22;59073;51.994;4.448;2023-08-01T00:11:52;17.53;84.81
71291;DHT22;59073;51.994;4.448;2023-08-01T00:14:17;17.49;84.40
71291;DHT22;59073;51.994;4.448;2023-08-01T00:16:45;17.58;84.23
71291;DHT22;59073;51.994;4.448;2023-08-01T00:19:10;17.56;84.31
71291;DHT22;59073;51.994;4.448;2023-08-01T00:21:37;17.48;84.24
71291;DHT22;59073;51.994;4.448;2023-08-01T00:24:03;17.59;84.26
71291;DHT22;59073;51.994;4.448;2023-08-01T00:26:28;17.51;84.03
71291;DHT22;59073;51.994;4.448;2023-08-01T00:28:54;17.52;83.77
71291;DHT22;59073;51.994;4.448;2023-08-01T00:31:19;17.49;83.96
71291;DHT22;59073;51.994;4.448;2023-08-01T00:33:44;17.53;83.99
71291;DHT22;59073;51.994;4.448;2023-08-01T00:36:10;17.53;83.77
71291;DHT22;59073;51.994;4.448;2023-08-01T00:38:36;17.52;83.91
71291;DHT22;59073;51.994;4.448;2023-08-01T00:41:02;17.48;84.11
71291;DHT22;59073;51.994;4.448;2023-08-01T00:43:28;17.48;84.37
71291;DHT22;59073;51.994;4.448;2023-08-01T00:45:58;17.49;84.68
71291;DHT22;59073;51.994;4.448;2023-08-01T00:48:24;17.58;84.62
71291;DHT22;59073;51.994;4.448;2023-08-01T00:50:50;17.56;84.85
71291;DHT22;59073;51.994;4.448;2023-08-01T00:53:16;17.55;85.05
71291;DHT22;59073;51.994;4.448;2023-08-01T00:55:43;17.65;85.01
71291;DHT22;59073;51.994;4.448;2023-08-01T00:58:09;17.69;85.08
71291;DHT22;59073;51.994;4.448;2023-08-01T01:00:34;17.80;84.75
71291;DHT22;59073;51.994;4.448;2023-08-01T01:03:00;17.80;84.70
71291;DHT22;59073;51.994;4.448;2023-08-01T01:05:27;17.83;84.79
71291;DHT22;59073;51.994;4.448;2023-08-01T01:07:58;17.89;84.67
71291;DHT22;59073;51.994;4.448;2023-08-01T01:10:23;17.93;84.41
71291;DHT22;59073;51.994;4.448;2023-08-01T01:12:48;17.92;84.44
71291;DHT22;59073;51.994;4.448;2023-08-01T01:15:15;18.00;84.50
71291;DHT22;59073;51.994;4.448;2023-08-01T01:17:40;17.92;84.37
71291;DHT22;59073;51.994;4.448;2023-08-01T01:20:06;17.94;84.50
71291;DHT22;59073;51.994;4.448;2023-08-01T01:22:33;17.90;84.35
71291;DHT22;59073;51.994;4.448;2023-08-01T01:25:01;17.85;84.58
71291;DHT22;59073;51.994;4.448;2023-08-01T01:27:28;17.73;84.98
71291;DHT22;59073;51.994;4.448;2023-08-01T01:29:55;17.66;84.92
71291;DHT22;59073;51.994;4.448;2023-08-01T01:32:21;17.52;85.39
71291;DHT22;59073;51.994;4.448;2023-08-01T01:34:47;17.52;85.64
71291;DHT22;59073;51.994;4.448;2023-08-01T01:37:12;17.59;85.01
71291;DHT22;59073;51.994;4.448;2023-08-01T01:39:38;17.65;85.09
71291;DHT22;59073;51.994;4.448;2023-08-01T01:42:03;17.78;84.61
71291;DHT22;59073;51.994;4.448;2023-08-01T01:44:29;17.78;84.72
71291;DHT22;59073;51.994;4.448;2023-08-01T01:46:54;17.89;84.42
71291;DHT22;59073;51.994;4.448;2023-08-01T01:49:20;17.92;84.44
71291;DHT22;59073;51.994;4.448;2023-08-01T01:51:45;17.92;84.61
71291;DHT22;59073;51.994;4.448;2023-08-01T01:54:11;17.94;84.99
71291;DHT22;59073;51.994;4.448;2023-08-01T01:56:36;17.96;85.09
71291;DHT22;59073;51.994;4.448;2023-08-01T01:59:01;17.80;85.49
71291;DHT22;59073;51.994;4.448;2023-08-01T02:01:27;17.75;85.51
71291;DHT22;59073;51.994;4.448;2023-08-01T02:03:52;17.72;85.47
71291;DHT22;59073;51.994;4.448;2023-08-01T02:06:18;17.65;85.73
71291;DHT22;59073;51.994;4.448;2023-08-01T02:08:43;17.63;85.83
71291;DHT22;59073;51.994;4.448;2023-08-01T02:11:09;17.63;86.05
71291;DHT22;59073;51.994;4.448;2023-08-01T02:13:34;17.62;85.97
71291;DHT22;59073;51.994;4.448;2023-08-01T02:15:59;17.59;86.11
71291;DHT22;59073;51.994;4.448;2023-08-01T02:18:25;17.59;86.16
71291;DHT22;59073;51.994;4.448;2023-08-01T02:20:50;17.53;86.40
71291;DHT22;59073;51.994;4.448;2023-08-01T02:23:16;17.52;86.17
71291;DHT22;59073;51.994;4.448;2023-08-01T02:25:42;17.62;85.77
71291;DHT22;59073;51.994;4.448;2023-08-01T02:28:07;17.63;85.60
71291;DHT22;59073;51.994;4.448;2023-08-01T02:30:34;17.66;85.54
71291;DHT22;59073;51.994;4.448;2023-08-01T02:33:00;17.71;85.65
71291;DHT22;59073;51.994;4.448;2023-08-01T02:35:26;17.72;85.50
71291;DHT22;59073;51.994;4.448;2023-08-01T02:37:53;17.82;85.47
71291;DHT22;59073;51.994;4.448;2023-08-01T02:40:19;17.78;85.48
71291;DHT22;59073;51.994;4.448;2023-08-01T02:42:44;17.79;85.35
71291;DHT22;59073;51.994;4.448;2023-08-01T02:45:09;17.80;85.21
71291;DHT22;59073;51.994;4.448;2023-08-01T02:47:35;17.72;85.42
71291;DHT22;59073;51.994;4.448;2023-08-01T02:50:00;17.61;85.56
71291;DHT22;59073;51.994;4.448;2023-08-01T02:52:26;17.56;85.63
71291;DHT22;59073;51.994;4.448;2023-08-01T02:54:51;17.56;86.05
71291;DHT22;59073;51.994;4.448;2023-08-01T02:57:16;17.55;86.00
71291;DHT22;59073;51.994;4.448;2023-08-01T02:59:42;17.51;85.52
71291;DHT22;59073;51.994;4.448;2023-08-01T03:02:07;17.53;85.54
71291;DHT22;59073;51.994;4.448;2023-08-01T03:04:33;17.55;85.44
71291;DHT22;59073;51.994;4.448;2023-08-01T03:06:58;17.46;85.55
71291;DHT22;59073;51.994;4.448;2023-08-01T03:09:24;17.43;85.52
71291;DHT22;59073;51.994;4.448;2023-08-01T03:11:49;17.39;85.29
71291;DHT22;59073;51.994;4.448;2023-08-01T03:14:14;17.39;85.49
71291;DHT22;59073;51.994;4.448;2023-08-01T03:16:40;17.35;85.37
71291;DHT22;59073;51.994;4.448;2023-08-01T03:19:05;17.36;85.54
71291;DHT22;59073;51.994;4.448;2023-08-01T03:21:32;17.38;85.54
71291;DHT22;59073;51.994;4.448;2023-08-01T03:23:57;17.42;86.32
71291;DHT22;59073;51.994;4.448;2023-08-01T03:26:23;17.42;86.34
71291;DHT22;59073;51.994;4.448;2023-08-01T03:28:48;17.43;86.82
71291;DHT22;59073;51.994;4.448;2023-08-01T03:31:14;17.38;87.12
71291;DHT22;59073;51.994;4.448;2023-08-01T03:33:40;17.30;86.99
71291;DHT22;59073;51.994;4.448;2023-08-01T03:36:06;17.25;87.77
71291;DHT22;59073;51.994;4.448;2023-08-01T03:38:31;17.24;87.70
71291;DHT22;59073;51.994;4.448;2023-08-01T03:40:57;17.20;88.07
71291;DHT22;59073;51.994;4.448;2023-08-01T03:43:22;17.24;87.84
71291;DHT22;59073;51.994;4.448;2023-08-01T03:45:49;17.27;87.65
71291;DHT22;59073;51.994;4.448;2023-08-01T03:48:15;17.27;87.60
71291;DHT22;59073;51.994;4.448;2023-08-01T03:50:41;17.24;87.46
71291;DHT22;59073;51.994;4.448;2023-08-01T03:53:06;17.30;87.46
71291;DHT22;59073;51.994;4.448;2023-08-01T03:55:32;17.27;87.38
71291;DHT22;59073;51.994;4.448;2023-08-01T03:57:58;17.34;87.01
71291;DHT22;59073;51.994;4.448;2023-08-01T04:00:23;17.38;87.04
71291;DHT22;59073;51.994;4.448;2023-08-01T04:02:49;17.39;86.47
71291;DHT22;59073;51.994;4.448;2023-08-01T04:05:14;17.34;86.55
71291;DHT22;59073;51.994;4.448;2023-08-01T04:07:41;17.35;86.52
71291;DHT22;59073;51.994;4.448;2023-08-01T04:10:07;17.39;86.53
71291;DHT22;59073;51.994;4.448;2023-08-01T04:12:33;17.38;86.38
71291;DHT22;59073;51.994;4.448;2023-08-01T04:15:00;17.43;86.05
71291;DHT22;59073;51.994;4.448;2023-08-01T04:17:26;17.35;86.06
71291;DHT22;59073;51.994;4.448;2023-08-01T04:19:52;17.34;85.95
71291;DHT22;59073;51.994;4.448;2023-08-01T04:22:18;17.32;85.65
71291;DHT22;59073;51.994;4.448;2023-08-01T04:24:43;17.24;85.81
71291;DHT22;59073;51.994;4.448;2023-08-01T04:27:09;17.30;85.79
71291;DHT22;59073;51.994;4.448;2023-08-01T04:29:34;17.32;85.63
71291;DHT22;59073;51.994;4.448;2023-08-01T04:32:00;17.24;85.98
71291;DHT22;59073;51.994;4.448;2023-08-01T04:34:25;17.24;85.88
71291;DHT22;59073;51.994;4.448;2023-08-01T04:36:50;17.15;86.01
71291;DHT22;59073;51.994;4.448;2023-08-01T04:39:16;17.12;85.89
71291;DHT22;59073;51.994;4.448;2023-08-01T04:41:41;17.24;85.74
71291;DHT22;59073;51.994;4.448;2023-08-01T04:44:07;17.22;85.30
71291;DHT22;59073;51.994;4.448;2023-08-01T04:46:32;17.20;85.85
71291;DHT22;59073;51.994;4.448;2023-08-01T04:48:58;17.21;85.65
71291;DHT22;59073;51.994;4.448;2023-08-01T04:51:24;17.15;85.00
71291;DHT22;59073;51.994;4.448;2023-08-01T04:53:50;17.18;85.34
71291;DHT22;59073;51.994;4.448;2023-08-01T04:56:15;17.20;85.35
71291;DHT22;59073;51.994;4.448;2023-08-01T04:58:40;17.24;85.01
71291;DHT22;59073;51.994;4.448;2023-08-01T05:01:06;17.38;85.01
71291;DHT22;59073;51.994;4.448;2023-08-01T05:03:31;17.38;84.94
71291;DHT22;59073;51.994;4.448;2023-08-01T05:05:57;17.46;85.14
71291;DHT22;59073;51.994;4.448;2023-08-01T05:08:23;17.45;85.07
71291;DHT22;59073;51.994;4.448;2023-08-01T05:10:48;17.46;85.58
71291;DHT22;59073;51.994;4.448;2023-08-01T05:13:13;17.45;85.35
71291;DHT22;59073;51.994;4.448;2023-08-01T05:15:39;17.51;84.93
71291;DHT22;59073;51.994;4.448;2023-08-01T05:18:04;17.46;84.68
71291;DHT22;59073;51.994;4.448;2023-08-01T05:20:30;17.36;84.88
71291;DHT22;59073;51.994;4.448;2023-08-01T05:22:59;17.38;84.37
71291;DHT22;59073;51.994;4.448;2023-08-01T05:25:25;17.32;84.43
71291;DHT22;59073;51.994;4.448;2023-08-01T05:27:50;17.45;83.88
71291;DHT22;59073;51.994;4.448;2023-08-01T05:30:16;17.49;84.06
71291;DHT22;59073;51.994;4.448;2023-08-01T05:32:42;17.56;82.91
71291;DHT22;59073;51.994;4.448;2023-08-01T05:35:09;17.75;83.31
71291;DHT22;59073;51.994;4.448;2023-08-01T05:37:35;18.18;81.91
71291;DHT22;59073;51.994;4.448;2023-08-01T05:40:02;18.30;81.59
71291;DHT22;59073;51.994;4.448;2023-08-01T05:42:28;18.78;80.20
71291;DHT22;59073;51.994;4.448;2023-08-01T05:44:53;18.69;80.52
71291;DHT22;59073;51.994;4.448;2023-08-01T05:47:19;18.54;80.08
71291;DHT22;59073;51.994;4.448;2023-08-01T05:49:44;18.44;81.53
71291;DHT22;59073;51.994;4.448;2023-08-01T05:52:09;18.52;80.33
71291;DHT22;59073;51.994;4.448;2023-08-01T05:54:35;18.61;80.39
71291;DHT22;59073;51.994;4.448;2023-08-01T05:57:00;19.67;78.33
71291;DHT22;59073;51.994;4.448;2023-08-01T05:59:26;19.59;78.16
71291;DHT22;59073;51.994;4.448;2023-08-01T06:01:52;19.78;77.36
71291;DHT22;59073;51.994;4.448;2023-08-01T06:04:17;19.71;77.87
71291;DHT22;59073;51.994;4.448;2023-08-01T06:06:43;20.65;75.68
71291;DHT22;59073;51.994;4.448;2023-08-01T06:09:08;20.71;74.09
71291;DHT22;59073;51.994;4.448;2023-08-01T06:11:33;19.92;76.24
71291;DHT22;59073;51.994;4.448;2023-08-01T06:14:00;19.40;77.33
71291;DHT22;59073;51.994;4.448;2023-08-01T06:16:25;18.95;78.67
71291;DHT22;59073;51.994;4.448;2023-08-01T06:18:51;20.28;75.72
71291;DHT22;59073;51.994;4.448;2023-08-01T06:21:16;20.21;75.16
71291;DHT22;59073;51.994;4.448;2023-08-01T06:23:42;19.77;76.58
71291;DHT22;59073;51.994;4.448;2023-08-01T06:26:07;19.45;78.08
71291;DHT22;59073;51.994;4.448;2023-08-01T06:28:32;19.46;78.02
71291;DHT22;59073;51.994;4.448;2023-08-01T06:30:58;20.20;76.89
71291;DHT22;59073;51.994;4.448;2023-08-01T06:33:23;19.61;78.09
71291;DHT22;59073;51.994;4.448;2023-08-01T06:35:49;19.08;79.19
71291;DHT22;59073;51.994;4.448;2023-08-01T06:38:14;18.57;81.11
71291;DHT22;59073;51.994;4.448;2023-08-01T06:40:40;18.41;82.01
71291;DHT22;59073;51.994;4.448;2023-08-01T06:43:05;18.29;82.09
71291;DHT22;59073;51.994;4.448;2023-08-01T06:45:31;18.64;81.22
71291;DHT22;59073;51.994;4.448;2023-08-01T06:47:56;19.67;79.20
71291;DHT22;59073;51.994;4.448;2023-08-01T06:50:21;20.51;75.52
71291;DHT22;59073;51.994;4.448;2023-08-01T06:52:47;21.40;72.45
71291;DHT22;59073;51.994;4.448;2023-08-01T06:55:12;21.35;72.94
71291;DHT22;59073;51.994;4.448;2023-08-01T06:57:38;20.57;74.85
71291;DHT22;59073;51.994;4.448;2023-08-01T07:00:03;20.49;75.32
71291;DHT22;59073;51.994;4.448;2023-08-01T07:02:29;21.07;75.66
71291;DHT22;59073;51.994;4.448;2023-08-01T07:04:54;20.49;74.33
71291;DHT22;59073;51.994;4.448;2023-08-01T07:07:20;20.02;75.61
71291;DHT22;59073;51.994;4.448;2023-08-01T07:09:45;20.12;76.10
71291;DHT22;59073;51.994;4.448;2023-08-01T07:12:11;20.53;74.51
71291;DHT22;59073;51.994;4.448;2023-08-01T07:14:36;20.52;73.97
71291;DHT22;59073;51.994;4.448;2023-08-01T07:17:02;20.61;75.35
71291;DHT22;59073;51.994;4.448;2023-08-01T07:19:27;20.43;72.49
71291;DHT22;59073;51.994;4.448;2023-08-01T07:21:53;20.45;72.80
71291;DHT22;59073;51.994;4.448;2023-08-01T07:24:18;20.26;72.86
71291;DHT22;59073;51.994;4.448;2023-08-01T07:26:44;20.56;73.19
71291;DHT22;59073;51.994;4.448;2023-08-01T07:29:09;20.48;73.52
71291;DHT22;59073;51.994;4.448;2023-08-01T07:31:36;20.38;72.82
71291;DHT22;59073;51.994;4.448;2023-08-01T07:34:02;20.77;73.89
71291;DHT22;59073;51.994;4.448;2023-08-01T07:36:27;20.18;73.61
71291;DHT22;59073;51.994;4.448;2023-08-01T07:38:53;20.14;74.26
71291;DHT22;59073;51.994;4.448;2023-08-01T07:41:19;20.57;74.66
71291;DHT22;59073;51.994;4.448;2023-08-01T07:43:44;21.15;71.68
71291;DHT22;59073;51.994;4.448;2023-08-01T07:46:10;21.24;70.80
71291;DHT22;59073;51.994;4.448;2023-08-01T07:48:37;21.55;70.79
71291;DHT22;59073;51.994;4.448;2023-08-01T07:51:03;21.41;71.60
71291;DHT22;59073;51.994;4.448;2023-08-01T07:53:30;21.04;71.34
71291;DHT22;59073;51.994;4.448;2023-08-01T07:55:56;20.86;73.20
71291;DHT22;59073;51.994;4.448;2023-08-01T07:58:21;21.00;72.05
71291;DHT22;59073;51.994;4.448;2023-08-01T08:00:47;21.24;72.73
71291;DHT22;59073;51.994;4.448;2023-08-01T08:03:13;21.06;71.09
71291;DHT22;59073;51.994;4.448;2023-08-01T08:05:39;21.27;71.11
71291;DHT22;59073;51.994;4.448;2023-08-01T08:08:06;21.11;71.02
71291;DHT22;59073;51.994;4.448;2023-08-01T08:10:31;21.07;71.79
71291;DHT22;59073;51.994;4.448;2023-08-01T08:12:57;21.07;70.93
71291;DHT22;59073;51.994;4.448;2023-08-01T08:15:22;20.87;73.19
71291;DHT22;59073;51.994;4.448;2023-08-01T08:17:49;20.43;74.38
71291;DHT22;59073;51.994;4.448;2023-08-01T08:20:14;20.14;73.91
71291;DHT22;59073;51.994;4.448;2023-08-01T08:22:40;19.94;74.74
71291;DHT22;59073;51.994;4.448;2023-08-01T08:25:05;19.67;73.37
71291;DHT22;59073;51.994;4.448;2023-08-01T08:27:31;19.53;73.95
71291;DHT22;59073;51.994;4.448;2023-08-01T08:29:56;19.46;74.56
71291;DHT22;59073;51.994;4.448;2023-08-01T08:32:22;19.06;74.55
71291;DHT22;59073;51.994;4.448;2023-08-01T08:34:47;19.11;74.17
71291;DHT22;59073;51.994;4.448;2023-08-01T08:37:12;19.77;75.70
71291;DHT22;59073;51.994;4.448;2023-08-01T08:39:38;20.73;74.39
71291;DHT22;59073;51.994;4.448;2023-08-01T08:42:04;21.38;69.85
71291;DHT22;59073;51.994;4.448;2023-08-01T08:44:30;21.82;71.36
71291;DHT22;59073;51.994;4.448;2023-08-01T08:47:03;21.68;69.19
71291;DHT22;59073;51.994;4.448;2023-08-01T08:49:29;21.51;70.51
71291;DHT22;59073;51.994;4.448;2023-08-01T08:51:56;21.86;69.61
71291;DHT22;59073;51.994;4.448;2023-08-01T08:54:22;21.62;68.73
71291;DHT22;59073;51.994;4.448;2023-08-01T08:56:48;21.42;66.74
71291;DHT22;59073;51.994;4.448;2023-08-01T08:59:14;20.80;69.41
71291;DHT22;59073;51.994;4.448;2023-08-01T09:01:40;20.77;70.51
71291;DHT22;59073;51.994;4.448;2023-08-01T09:04:06;21.26;70.16
71291;DHT22;59073;51.994;4.448;2023-08-01T09:06:35;21.88;67.33
71291;DHT22;59073;51.994;4.448;2023-08-01T09:09:08;21.89;68.58
71291;DHT22;59073;51.994;4.448;2023-08-01T09:11:52;21.95;67.06
71291;DHT22;59073;51.994;4.448;2023-08-01T09:14:18;21.59;66.99
71291;DHT22;59073;51.994;4.448;2023-08-01T09:16:45;20.94;67.90
71291;DHT22;59073;51.994;4.448;2023-08-01T09:19:20;21.35;69.52
71291;DHT22;59073;51.994;4.448;2023-08-01T09:21:47;21.59;68.58
71291;DHT22;59073;51.994;4.448;2023-08-01T09:24:17;21.59;67.77
71291;DHT22;59073;51.994;4.448;2023-08-01T09:26:44;20.97;68.35
71291;DHT22;59073;51.994;4.448;2023-08-01T09:29:10;20.68;70.82
71291;DHT22;59073;51.994;4.448;2023-08-01T09:31:38;21.06;70.55
71291;DHT22;59073;51.994;4.448;2023-08-01T09:34:05;21.45;70.68
71291;DHT22;59073;51.994;4.448;2023-08-01T09:36:32;21.92;67.04
71291;DHT22;59073;51.994;4.448;2023-08-01T09:39:02;22.20;66.63
71291;DHT22;59073;51.994;4.448;2023-08-01T09:41:31;22.44;66.10
71291;DHT22;59073;51.994;4.448;2023-08-01T09:43:57;22.59;65.56
71291;DHT22;59073;51.994;4.448;2023-08-01T09:46:23;22.28;64.79
71291;DHT22;59073;51.994;4.448;2023-08-01T09:48:49;22.43;66.71
71291;DHT22;59073;51.994;4.448;2023-08-01T09:51:17;22.80;66.58
71291;DHT22;59073;51.994;4.448;2023-08-01T09:53:54;22.84;65.91
71291;DHT22;59073;51.994;4.448;2023-08-01T09:56:27;22.86;65.80
71291;DHT22;59073;51.994;4.448;2023-08-01T09:58:54;22.68;65.14
71291;DHT22;59073;51.994;4.448;2023-08-01T10:01:22;22.80;65.69
71291;DHT22;59073;51.994;4.448;2023-08-01T10:03:50;22.94;64.50
71291;DHT22;59073;51.994;4.448;2023-08-01T10:06:28;22.57;64.22
71291;DHT22;59073;51.994;4.448;2023-08-01T10:08:58;22.17;64.16
71291;DHT22;59073;51.994;4.448;2023-08-01T10:11:23;22.16;66.44
71291;DHT22;59073;51.994;4.448;2023-08-01T10:13:49;22.06;66.55
71291;DHT22;59073;51.994;4.448;2023-08-01T10:16:15;22.08;66.73
71291;DHT22;59073;51.994;4.448;2023-08-01T10:18:42;21.61;65.31
71291;DHT22;59073;51.994;4.448;2023-08-01T10:21:16;21.20;64.51
71291;DHT22;59073;51.994;4.448;2023-08-01T10:23:44;21.14;68.30
71291;DHT22;59073;51.994;4.448;2023-08-01T10:26:11;21.91;69.58
71291;DHT22;59073;51.994;4.448;2023-08-01T10:28:40;22.22;65.45
71291;DHT22;59073;51.994;4.448;2023-08-01T10:31:14;22.70;65.11
71291;DHT22;59073;51.994;4.448;2023-08-01T10:33:45;22.78;65.22
71291;DHT22;59073;51.994;4.448;2023-08-01T10:36:22;23.08;62.74
71291;DHT22;59073;51.994;4.448;2023-08-01T10:38:56;22.53;61.67
71291;DHT22;59073;51.994;4.448;2023-08-01T10:41:44;21.72;64.96
71291;DHT22;59073;51.994;4.448;2023-08-01T10:46:58;20.62;68.61
71291;DHT22;59073;51.994;4.448;2023-08-01T10:49:40;20.36;69.11
71291;DHT22;59073;51.994;4.448;2023-08-01T10:52:21;20.38;69.73
71291;DHT22;59073;51.994;4.448;2023-08-01T10:57:21;20.25;70.11
71291;DHT22;59073;51.994;4.448;2023-08-01T10:59:47;20.33;69.20
71291;DHT22;59073;51.994;4.448;2023-08-01T11:02:20;20.96;69.86
71291;DHT22;59073;51.994;4.448;2023-08-01T11:07:22;21.66;68.31
71291;DHT22;59073;51.994;4.448;2023-08-01T11:09:47;21.52;66.81
71291;DHT22;59073;51.994;4.448;2023-08-01T11:12:13;21.34;64.64
71291;DHT22;59073;51.994;4.448;2023-08-01T11:14:38;21.50;66.23
71291;DHT22;59073;51.994;4.448;2023-08-01T11:17:04;21.37;65.07
71291;DHT22;59073;51.994;4.448;2023-08-01T11:19:30;21.07;67.02
71291;DHT22;59073;51.994;4.448;2023-08-01T11:21:57;21.44;67.54
71291;DHT22;59073;51.994;4.448;2023-08-01T11:24:25;21.40;65.66
71291;DHT22;59073;51.994;4.448;2023-08-01T11:26:53;21.48;66.53
71291;DHT22;59073;51.994;4.448;2023-08-01T11:29:20;21.51;65.13
71291;DHT22;59073;51.994;4.448;2023-08-01T11:34:18;21.31;64.67
71291;DHT22;59073;51.994;4.448;2023-08-01T11:36:43;21.14;65.21
71291;DHT22;59073;51.994;4.448;2023-08-01T11:39:12;21.02;67.03
71291;DHT22;59073;51.994;4.448;2023-08-01T11:41:38;21.64;67.43
71291;DHT22;59073;51.994;4.448;2023-08-01T11:44:04;22.46;65.35
71291;DHT22;59073;51.994;4.448;2023-08-01T11:46:34;22.63;65.83
71291;DHT22;59073;51.994;4.448;2023-08-01T11:49:01;22.13;64.59
71291;DHT22;59073;51.994;4.448;2023-08-01T11:51:28;22.33;64.17
71291;DHT22;59073;51.994;4.448;2023-08-01T11:54:03;22.40;63.88
71291;DHT22;59073;51.994;4.448;2023-08-01T11:56:30;22.08;63.84
71291;DHT22;59073;51.994;4.448;2023-08-01T11:58:56;21.79;65.74
71291;DHT22;59073;51.994;4.448;2023-08-01T12:01:21;21.37;66.55
71291;DHT22;59073;51.994;4.448;2023-08-01T12:03:50;20.86;67.77
71291;DHT22;59073;51.994;4.448;2023-08-01T12:06:17;20.71;68.02
71291;DHT22;59073;51.994;4.448;2023-08-01T12:08:44;21.27;67.71
71291;DHT22;59073;51.994;4.448;2023-08-01T12:11:27;22.10;66.49
71291;DHT22;59073;51.994;4.448;2023-08-01T12:16:35;22.67;62.23
71291;DHT22;59073;51.994;4.448;2023-08-01T12:19:01;22.30;60.77
71291;DHT22;59073;51.994;4.448;2023-08-01T12:21:26;22.33;63.46
71291;DHT22;59073;51.994;4.448;2023-08-01T12:23:52;22.42;64.75
71291;DHT22;59073;51.994;4.448;2023-08-01T12:26:18;22.33;63.95
71291;DHT22;59073;51.994;4.448;2023-08-01T12:28:43;21.83;63.14
71291;DHT22;59073;51.994;4.448;2023-08-01T12:31:08;21.50;65.33
71291;DHT22;59073;51.994;4.448;2023-08-01T12:33:34;21.50;65.90
71291;DHT22;59073;51.994;4.448;2023-08-01T12:35:59;22.06;65.68
71291;DHT22;59073;51.994;4.448;2023-08-01T12:38:26;21.86;64.45
71291;DHT22;59073;51.994;4.448;2023-08-01T12:40:51;21.64;64.69
71291;DHT22;59073;51.994;4.448;2023-08-01T12:43:17;21.99;65.26
71291;DHT22;59073;51.994;4.448;2023-08-01T12:45:42;22.28;64.81
71291;DHT22;59073;51.994;4.448;2023-08-01T12:48:08;22.35;63.93
71291;DHT22;59073;51.994;4.448;2023-08-01T12:50:33;21.93;63.27
71291;DHT22;59073;51.994;4.448;2023-08-01T12:52:59;21.86;64.38
71291;DHT22;59073;51.994;4.448;2023-08-01T12:55:24;21.99;64.73
71291;DHT22;59073;51.994;4.448;2023-08-01T12:57:50;22.22;65.20
71291;DHT22;59073;51.994;4.448;2023-08-01T13:00:16;22.26;64.62
71291;DHT22;59073;51.994;4.448;2023-08-01T13:02:41;22.24;63.24
71291;DHT22;59073;51.994;4.448;2023-08-01T13:05:07;22.43;64.68
71291;DHT22;59073;51.994;4.448;2023-08-01T13:07:32;22.49;63.91
71291;DHT22;59073;51.994;4.448;2023-08-01T13:09:58;22.14;64.44
71291;DHT22;59073;51.994;4.448;2023-08-01T13:12:24;21.82;65.31
71291;DHT22;59073;51.994;4.448;2023-08-01T13:14:50;21.52;65.06
71291;DHT22;59073;51.994;4.448;2023-08-01T13:17:15;21.57;65.64
71291;DHT22;59073;51.994;4.448;2023-08-01T13:19:41;21.61;66.09
71291;DHT22;59073;51.994;4.448;2023-08-01T13:22:06;21.62;66.33
71291;DHT22;59073;51.994;4.448;2023-08-01T13:24:31;21.77;65.25
71291;DHT22;59073;51.994;4.448;2023-08-01T13:26:58;21.59;65.64
71291;DHT22;59073;51.994;4.448;2023-08-01T13:29:23;21.44;66.40
71291;DHT22;59073;51.994;4.448;2023-08-01T13:31:48;21.45;65.75
71291;DHT22;59073;51.994;4.448;2023-08-01T13:34:14;21.40;66.61
71291;DHT22;59073;51.994;4.448;2023-08-01T13:36:39;21.58;67.32
71291;DHT22;59073;51.994;4.448;2023-08-01T13:39:05;21.74;67.54
71291;DHT22;59073;51.994;4.448;2023-08-01T13:41:32;21.89;66.36
71291;DHT22;59073;51.994;4.448;2023-08-01T13:43:57;21.81;66.54
71291;DHT22;59073;51.994;4.448;2023-08-01T13:46:22;21.74;65.83
71291;DHT22;59073;51.994;4.448;2023-08-01T13:48:48;21.65;66.70
71291;DHT22;59073;51.994;4.448;2023-08-01T13:51:13;21.66;67.76
71291;DHT22;59073;51.994;4.448;2023-08-01T13:53:39;21.44;66.63
71291;DHT22;59073;51.994;4.448;2023-08-01T13:56:08;21.48;66.09
71291;DHT22;59073;51.994;4.448;2023-08-01T13:58:33;21.75;67.08
71291;DHT22;59073;51.994;4.448;2023-08-01T14:01:06;22.23;65.85
71291;DHT22;59073;51.994;4.448;2023-08-01T14:03:33;22.56;65.06
71291;DHT22;59073;51.994;4.448;2023-08-01T14:06:13;22.24;64.93
71291;DHT22;59073;51.994;4.448;2023-08-01T14:08:39;22.10;65.88
71291;DHT22;59073;51.994;4.448;2023-08-01T14:11:06;22.08;66.78
71291;DHT22;59073;51.994;4.448;2023-08-01T14:13:33;21.98;65.95
71291;DHT22;59073;51.994;4.448;2023-08-01T14:16:00;21.57;65.70
71291;DHT22;59073;51.994;4.448;2023-08-01T14:18:27;21.23;66.11
71291;DHT22;59073;51.994;4.448;2023-08-01T14:20:53;21.21;66.44
71291;DHT22;59073;51.994;4.448;2023-08-01T14:23:18;21.14;67.21
71291;DHT22;59073;51.994;4.448;2023-08-01T14:25:44;21.07;67.16
71291;DHT22;59073;51.994;4.448;2023-08-01T14:28:09;20.89;67.95
71291;DHT22;59073;51.994;4.448;2023-08-01T14:30:36;20.49;68.08
71291;DHT22;59073;51.994;4.448;2023-08-01T14:33:05;20.18;69.01
71291;DHT22;59073;51.994;4.448;2023-08-01T14:35:31;19.84;69.24
71291;DHT22;59073;51.994;4.448;2023-08-01T14:37:58;19.61;71.87
71291;DHT22;59073;51.994;4.448;2023-08-01T14:40:24;18.95;76.33
71291;DHT22;59073;51.994;4.448;2023-08-01T14:42:51;18.61;79.09
71291;DHT22;59073;51.994;4.448;2023-08-01T14:45:17;18.54;80.28
71291;DHT22;59073;51.994;4.448;2023-08-01T14:47:43;18.61;80.45
71291;DHT22;59073;51.994;4.448;2023-08-01T14:50:10;18.64;80.67
71291;DHT22;59073;51.994;4.448;2023-08-01T14:52:36;18.54;79.26
71291;DHT22;59073;51.994;4.448;2023-08-01T14:55:01;18.55;79.57
71291;DHT22;59073;51.994;4.448;2023-08-01T14:57:27;18.71;79.15
71291;DHT22;59073;51.994;4.448;2023-08-01T14:59:53;19.03;79.20
71291;DHT22;59073;51.994;4.448;2023-08-01T15:02:19;19.40;78.77
71291;DHT22;59073;51.994;4.448;2023-08-01T15:04:45;19.83;77.77
71291;DHT22;59073;51.994;4.448;2023-08-01T15:07:10;20.21;77.22
71291;DHT22;59073;51.994;4.448;2023-08-01T15:09:35;20.42;76.69
71291;DHT22;59073;51.994;4.448;2023-08-01T15:12:01;20.69;76.48
71291;DHT22;59073;51.994;4.448;2023-08-01T15:14:26;20.83;75.32
71291;DHT22;59073;51.994;4.448;2023-08-01T15:16:52;20.72;73.79
71291;DHT22;59073;51.994;4.448;2023-08-01T15:19:17;20.68;72.58
71291;DHT22;59073;51.994;4.448;2023-08-01T15:21:44;20.59;71.79
71291;DHT22;59073;51.994;4.448;2023-08-01T15:24:10;20.62;71.87
71291;DHT22;59073;51.994;4.448;2023-08-01T15:26:35;20.46;71.24
71291;DHT22;59073;51.994;4.448;2023-08-01T15:29:01;20.38;72.58
71291;DHT22;59073;51.994;4.448;2023-08-01T15:31:26;20.45;71.40
71291;DHT22;59073;51.994;4.448;2023-08-01T15:33:52;20.29;71.48
71291;DHT22;59073;51.994;4.448;2023-08-01T15:36:17;20.29;71.80
71291;DHT22;59073;51.994;4.448;2023-08-01T15:38:42;20.46;72.22